Time;durP1;ratioP1;P1;durP2;ratioP2;P2;SDS_P1;SDS_P2;PMS_P1;PMS_P2;Temp;Humidity;BMP_temperature;BMP_pressure;BME280_temperature;BME280_humidity;BME280_pressure;Samples;Min_cycle;Max_cycle;Signal;HPM_P1;HPM_P2
2023/09/18 00:02:11;;;;;;;1.33;0.87;;;;;;;9.11;100.00;101883.44;5052250;28;20457;-70
2023/09/18 00:04:37;;;;;;;1.83;0.80;;;;;;;9.34;100.00;101923.25;5052564;28;20044;-70
2023/09/18 00:07:02;;;;;;;1.53;1.00;;;;;;;9.34;100.00;101908.16;5051562;28;20397;-69
2023/09/18 00:09:28;;;;;;;1.10;1.00;;;;;;;9.22;100.00;101901.16;5051359;28;20075;-69
2023/09/18 00:11:53;;;;;;;3.80;1.00;;;;;;;9.36;100.00;101927.47;5051314;28;20047;-69
2023/09/18 00:14:19;;;;;;;1.00;0.90;;;;;;;9.36;100.00;101926.63;5054401;28;20025;-70
2023/09/18 00:16:45;;;;;;;2.33;1.07;;;;;;;9.24;100.00;101913.34;5053707;28;20112;-71
2023/09/18 00:19:10;;;;;;;0.90;0.90;;;;;;;9.31;100.00;101929.66;5055321;28;20065;-71
2023/09/18 00:21:36;;;;;;;1.93;1.20;;;;;;;9.35;100.00;101935.56;5054864;28;20435;-70
2023/09/18 00:24:03;;;;;;;2.10;1.10;;;;;;;9.33;100.00;101943.69;5055774;28;20040;-69
2023/09/18 00:26:28;;;;;;;1.17;1.00;;;;;;;9.34;100.00;101941.88;5053638;28;20357;-71
2023/09/18 00:28:54;;;;;;;1.00;0.90;;;;;;;9.34;100.00;101933.88;5054759;28;20120;-69
2023/09/18 00:31:22;;;;;;;0.93;0.90;;;;;;;8.92;100.00;101876.13;5054661;28;20072;-70
2023/09/18 00:33:48;;;;;;;2.47;1.25;;;;;;;9.22;100.00;101931.25;5054507;28;20040;-70
2023/09/18 00:36:13;;;;;;;2.03;1.37;;;;;;;9.23;100.00;101935.59;5054555;28;20071;-71
2023/09/18 00:38:39;;;;;;;1.27;0.97;;;;;;;9.21;100.00;101934.88;5053488;28;20056;-70
2023/09/18 00:41:30;;;;;;;1.33;1.20;;;;;;;8.98;100.00;101918.16;5054706;28;20040;-71
2023/09/18 00:43:55;;;;;;;1.33;1.10;;;;;;;9.14;100.00;101939.00;5053415;28;20071;-70
2023/09/18 00:46:22;;;;;;;1.20;1.10;;;;;;;9.06;100.00;101919.34;5053332;28;20028;-69
2023/09/18 00:48:48;;;;;;;1.07;1.00;;;;;;;9.16;100.00;101936.22;5054458;28;20040;-70
2023/09/18 00:51:15;;;;;;;2.13;1.20;;;;;;;9.21;100.00;101949.97;5054190;28;20021;-70
2023/09/18 00:53:45;;;;;;;1.07;1.00;;;;;;;9.19;100.00;101952.75;5054348;28;20071;-70
2023/09/18 00:56:11;;;;;;;2.10;1.20;;;;;;;8.91;100.00;101903.66;5053034;28;20456;-70
2023/09/18 00:58:36;;;;;;;1.30;1.00;;;;;;;9.16;100.00;101953.00;5054394;28;20029;-70
2023/09/18 01:01:04;;;;;;;1.80;1.10;;;;;;;9.20;100.00;101956.25;5053111;28;20036;-70
2023/09/18 01:03:29;;;;;;;1.73;0.90;;;;;;;9.18;100.00;101951.06;5054377;28;20104;-70
2023/09/18 01:05:55;;;;;;;1.07;1.00;;;;;;;9.16;100.00;101947.69;5053061;28;20496;-70
2023/09/18 01:08:21;;;;;;;1.40;0.90;;;;;;;9.10;100.00;101952.66;5053924;28;20029;-69
2023/09/18 01:11:14;;;;;;;0.83;0.83;;;;;;;9.16;100.00;101960.97;5053902;28;20021;-71
2023/09/18 01:13:58;;;;;;;1.70;1.07;;;;;;;9.08;100.00;101950.13;5054248;28;20110;-70
2023/09/18 01:16:31;;;;;;;1.37;1.10;;;;;;;9.02;100.00;101945.31;5052976;28;20512;-70
2023/09/18 01:18:57;;;;;;;1.90;1.27;;;;;;;8.91;100.00;101954.13;5052833;28;20083;-70
2023/09/18 01:21:23;;;;;;;1.23;1.13;;;;;;;8.90;100.00;101964.88;5054193;28;20480;-70
2023/09/18 01:23:49;;;;;;;1.30;1.20;;;;;;;8.93;100.00;101968.13;5053756;28;20385;-69
2023/09/18 01:26:15;;;;;;;1.33;1.10;;;;;;;8.89;100.00;101966.69;5053179;28;20491;-70
2023/09/18 01:28:40;;;;;;;1.40;0.83;;;;;;;8.66;100.00;101938.47;5053875;28;20029;-70
2023/09/18 01:31:08;;;;;;;2.97;1.10;;;;;;;8.00;100.00;101842.75;5053688;28;20080;-70
2023/09/18 01:33:34;;;;;;;1.40;1.20;;;;;;;8.85;100.00;101989.16;5053539;28;20037;-69
2023/09/18 01:36:02;;;;;;;1.93;1.00;;;;;;;8.83;100.00;101980.47;5053724;28;20024;-70
2023/09/18 01:38:28;;;;;;;4.07;1.00;;;;;;;8.86;100.00;101980.22;5052354;28;20032;-69
2023/09/18 01:40:54;;;;;;;1.37;1.17;;;;;;;8.87;100.00;101984.56;5053584;28;20115;-70
2023/09/18 01:43:20;;;;;;;1.20;1.10;;;;;;;8.89;100.00;101992.41;5053676;28;20029;-71
2023/09/18 01:45:47;;;;;;;4.90;2.30;;;;;;;8.90;100.00;101988.78;5052297;28;20021;-71
2023/09/18 01:48:15;;;;;;;1.77;1.10;;;;;;;8.96;100.00;101989.19;5053337;28;20063;-70
2023/09/18 01:50:42;;;;;;;1.50;1.10;;;;;;;8.99;100.00;101993.41;5053694;28;20029;-70
2023/09/18 01:53:07;;;;;;;1.83;1.00;;;;;;;8.76;100.00;101938.59;5053944;28;20036;-70
2023/09/18 01:55:33;;;;;;;3.13;1.10;;;;;;;9.07;100.00;101983.00;5053484;28;20033;-69
2023/09/18 01:57:59;;;;;;;1.50;1.00;;;;;;;9.00;100.00;101985.31;5057037;28;20531;-70
2023/09/18 02:00:25;;;;;;;2.07;1.40;;;;;;;8.90;100.00;101984.34;5053434;28;20048;-69
2023/09/18 02:02:51;;;;;;;1.53;1.27;;;;;;;8.85;100.00;101967.91;5051718;28;20028;-70
2023/09/18 02:05:16;;;;;;;1.50;1.20;;;;;;;8.47;100.00;101909.88;5051842;28;20448;-69
2023/09/18 02:07:42;;;;;;;4.00;1.43;;;;;;;8.92;100.00;101993.03;5052874;28;20029;-68
2023/09/18 02:10:08;;;;;;;1.27;1.10;;;;;;;8.85;100.00;101999.78;5051715;28;20037;-70
2023/09/18 02:12:34;;;;;;;1.47;1.30;;;;;;;8.88;100.00;102007.53;5052727;28;20028;-69
2023/09/18 02:15:04;;;;;;;1.40;0.97;;;;;;;8.77;100.00;101990.75;5052804;28;20515;-69
2023/09/18 02:17:30;;;;;;;1.30;1.20;;;;;;;8.79;100.00;101992.31;5052913;28;20683;-70
2023/09/18 02:19:56;;;;;;;1.63;1.23;;;;;;;8.76;100.00;102005.84;5052828;28;20441;-70
2023/09/18 02:22:21;;;;;;;1.00;0.90;;;;;;;8.20;100.00;101925.28;5055914;28;20033;-70
2023/09/18 02:24:47;;;;;;;1.60;1.50;;;;;;;8.79;100.00;102020.69;5056704;28;20120;-70
2023/09/18 02:27:13;;;;;;;4.03;1.30;;;;;;;8.78;100.00;102017.19;5055634;28;20036;-71
2023/09/18 02:29:38;;;;;;;1.63;1.27;;;;;;;8.78;100.00;102032.28;5053929;28;20028;-71
2023/09/18 02:32:06;;;;;;;1.20;1.10;;;;;;;8.76;100.00;102021.78;5051005;28;20087;-70
2023/09/18 02:34:33;;;;;;;1.20;1.10;;;;;;;8.74;100.00;102020.22;5052529;28;20089;-71
2023/09/18 02:36:59;;;;;;;2.13;1.10;;;;;;;8.62;100.00;102008.72;5050805;28;20040;-71
2023/09/18 02:39:24;;;;;;;1.30;1.17;;;;;;;8.64;100.00;102025.38;5051192;28;20544;-70
2023/09/18 02:41:50;;;;;;;1.40;1.30;;;;;;;8.04;100.00;101936.22;5052320;28;20021;-70
2023/09/18 02:44:16;;;;;;;1.67;1.30;;;;;;;7.54;100.00;101853.41;5054173;28;20092;-69
2023/09/18 02:46:43;;;;;;;1.63;1.23;;;;;;;8.31;100.00;101989.81;5056690;28;20127;-70
2023/09/18 02:49:08;;;;;;;1.53;1.40;;;;;;;8.45;100.00;102006.53;5054203;28;20093;-69
2023/09/18 02:51:34;;;;;;;2.37;2.17;;;;;;;8.53;100.00;102033.34;5038991;28;20121;-70
2023/09/18 02:53:59;;;;;;;4.30;1.07;;;;;;;8.51;100.00;102014.88;5055151;28;20032;-70
2023/09/18 02:56:25;;;;;;;1.40;1.30;;;;;;;8.41;100.00;102007.75;5052256;28;20398;-70
2023/09/18 02:58:51;;;;;;;5.60;1.20;;;;;;;8.24;100.00;101985.09;5052089;28;20475;-71
2023/09/18 03:01:17;;;;;;;4.10;1.20;;;;;;;8.49;100.00;102022.09;5052347;28;20445;-70
2023/09/18 03:03:43;;;;;;;2.07;1.17;;;;;;;8.48;100.00;102024.88;5051788;28;20025;-70
2023/09/18 03:06:08;;;;;;;3.67;1.33;;;;;;;8.13;100.00;101971.81;5050953;28;20029;-71
2023/09/18 03:08:35;;;;;;;4.97;1.30;;;;;;;8.39;100.00;102034.41;5050678;28;20040;-71
2023/09/18 03:11:00;;;;;;;1.77;1.57;;;;;;;8.27;100.00;102014.91;5051981;28;20025;-71
2023/09/18 03:13:28;;;;;;;1.33;1.20;;;;;;;8.36;100.00;102022.19;5052381;28;20035;-70
2023/09/18 03:15:55;;;;;;;1.80;1.20;;;;;;;8.45;100.00;102046.38;5052081;28;20036;-70
2023/09/18 03:18:20;;;;;;;1.33;1.17;;;;;;;8.16;100.00;101987.50;5050753;28;20033;-69
2023/09/18 03:20:46;;;;;;;2.00;1.43;;;;;;;8.36;100.00;102032.81;5052122;28;20426;-73
2023/09/18 03:23:11;;;;;;;1.50;1.40;;;;;;;8.29;100.00;102018.28;5051792;28;20040;-70
2023/09/18 03:25:37;;;;;;;3.93;1.50;;;;;;;8.28;100.00;102023.72;5052004;28;20037;-69
2023/09/18 03:28:03;;;;;;;1.80;1.10;;;;;;;8.38;100.00;102036.22;5050897;28;20029;-70
2023/09/18 03:30:29;;;;;;;1.57;1.47;;;;;;;8.30;100.00;102017.31;5052099;28;20033;-70
2023/09/18 03:32:57;;;;;;;2.10;1.70;;;;;;;8.36;100.00;102021.34;5050574;28;20507;-70
2023/09/18 03:35:23;;;;;;;6.38;2.03;;;;;;;8.37;100.00;102023.88;5051208;28;20127;-71
2023/09/18 03:37:53;;;;;;;2.10;1.43;;;;;;;8.34;100.00;102024.13;5050830;28;20021;-69
2023/09/18 03:40:20;;;;;;;1.60;1.20;;;;;;;8.30;100.00;102030.59;5051963;28;20025;-70
2023/09/18 03:42:47;;;;;;;1.83;1.40;;;;;;;8.35;100.00;102035.59;5051476;28;20024;-71
2023/09/18 03:45:13;;;;;;;2.77;1.53;;;;;;;7.95;100.00;101968.75;5051731;28;20040;-71
2023/09/18 03:47:40;;;;;;;2.37;1.40;;;;;;;8.28;100.00;102019.25;5050907;28;20025;-71
2023/09/18 03:50:10;;;;;;;3.37;1.50;;;;;;;8.24;100.00;102006.34;5055460;28;20035;-69
2023/09/18 03:52:38;;;;;;;2.77;1.80;;;;;;;8.25;100.00;102016.00;5055852;28;20356;-71
2023/09/18 03:55:04;;;;;;;1.87;1.33;;;;;;;8.25;100.00;102034.56;5055318;28;20029;-71
2023/09/18 03:57:30;;;;;;;2.30;1.67;;;;;;;8.19;100.00;102046.50;5055484;28;20480;-70
2023/09/18 03:59:56;;;;;;;4.83;1.80;;;;;;;7.81;100.00;101988.38;5055619;28;20036;-72
2023/09/18 04:02:24;;;;;;;3.50;1.70;;;;;;;8.06;100.00;102024.50;5055687;28;20035;-69
2023/09/18 04:04:49;;;;;;;2.33;1.98;;;;;;;8.23;100.00;102041.81;5055426;28;20029;-70
2023/09/18 04:07:16;;;;;;;2.10;1.90;;;;;;;8.24;100.00;102038.19;5055531;28;20486;-71
2023/09/18 04:09:42;;;;;;;3.13;1.70;;;;;;;8.03;100.00;102004.34;5055351;28;20352;-71
2023/09/18 04:12:08;;;;;;;4.07;2.10;;;;;;;8.26;100.00;102042.41;5054093;28;20419;-71
2023/09/18 04:14:35;;;;;;;4.30;1.80;;;;;;;8.19;100.00;102054.47;5055314;28;20368;-71
2023/09/18 04:17:01;;;;;;;2.10;1.87;;;;;;;8.14;100.00;102043.34;5055041;28;20065;-69
2023/09/18 04:19:27;;;;;;;4.17;1.60;;;;;;;8.23;100.00;102045.31;5054987;28;20109;-70
2023/09/18 04:21:53;;;;;;;4.03;1.70;;;;;;;8.24;100.00;102054.94;5053638;28;20116;-67
2023/09/18 04:24:18;;;;;;;2.77;2.10;;;;;;;8.22;100.00;102054.22;5053956;28;20031;-70
2023/09/18 04:26:46;;;;;;;2.50;1.87;;;;;;;7.45;100.00;101928.31;5054638;28;20421;-74
2023/09/18 04:29:15;;;;;;;2.30;1.90;;;;;;;8.13;100.00;102040.81;5054750;28;20377;-68
2023/09/18 04:31:43;;;;;;;4.13;1.73;;;;;;;8.14;100.00;102046.00;5055202;28;20101;-71
2023/09/18 04:34:08;;;;;;;3.03;1.55;;;;;;;7.98;100.00;102022.41;5064085;28;20044;-68
2023/09/18 04:36:36;;;;;;;4.27;2.60;;;;;;;8.13;100.00;102046.97;5067106;28;20025;-71
2023/09/18 04:39:02;;;;;;;2.80;2.00;;;;;;;7.88;100.00;102015.28;5060437;28;20059;-70
2023/09/18 04:41:28;;;;;;;3.27;2.10;;;;;;;8.00;100.00;102035.56;5066368;28;20071;-69
2023/09/18 04:43:53;;;;;;;2.80;1.67;;;;;;;8.02;100.00;102044.25;5054650;28;20074;-69
2023/09/18 04:46:19;;;;;;;1.97;1.60;;;;;;;7.63;100.00;101987.06;5054681;28;20064;-73
2023/09/18 04:48:45;;;;;;;3.20;1.83;;;;;;;7.96;100.00;102036.75;5054662;28;20076;-73
2023/09/18 04:51:12;;;;;;;3.37;2.03;;;;;;;8.17;100.00;102055.53;5053213;28;20112;-70
2023/09/18 04:53:37;;;;;;;2.03;1.60;;;;;;;8.13;100.00;102043.47;5054330;28;20075;-74
2023/09/18 04:56:03;;;;;;;6.30;2.67;;;;;;;8.26;100.00;102058.34;5054169;28;20025;-73
2023/09/18 04:58:31;;;;;;;3.10;2.20;;;;;;;8.28;100.00;102045.78;5053520;28;20021;-68
2023/09/18 05:00:58;;;;;;;4.37;2.73;;;;;;;8.45;100.00;102062.28;5052729;28;20102;-70
2023/09/18 05:03:24;;;;;;;3.27;1.80;;;;;;;8.48;100.00;102065.56;5053583;28;20025;-70
2023/09/18 05:05:50;;;;;;;1.57;1.40;;;;;;;7.77;100.00;101945.28;5052559;28;20039;-70
2023/09/18 05:08:16;;;;;;;2.33;1.30;;;;;;;8.62;100.00;102070.63;5052027;28;20017;-70
2023/09/18 05:10:42;;;;;;;1.80;1.43;;;;;;;8.53;100.00;102049.25;5053133;28;20112;-69
2023/09/18 05:13:08;;;;;;;1.83;1.10;;;;;;;8.66;100.00;102072.09;5051198;28;20074;-70
2023/09/18 05:15:33;;;;;;;4.80;1.13;;;;;;;8.63;100.00;102055.56;5053405;28;20025;-70
2023/09/18 05:18:00;;;;;;;1.93;1.40;;;;;;;8.78;100.00;102075.63;5052105;28;20120;-70
2023/09/18 05:20:28;;;;;;;2.73;1.60;;;;;;;8.82;100.00;102082.38;5055855;28;20491;-71
2023/09/18 05:22:56;;;;;;;3.90;1.30;;;;;;;8.85;100.00;102086.63;5037908;28;20041;-70
2023/09/18 05:25:24;;;;;;;3.30;1.80;;;;;;;8.63;100.00;102034.31;5052912;28;20409;-74
2023/09/18 05:27:57;;;;;;;10.15;1.70;;;;;;;8.82;100.00;102061.13;5053418;28;20063;-70
2023/09/18 05:30:32;;;;;;;2.20;1.30;;;;;;;8.50;100.00;102007.03;5055694;28;20032;-70
2023/09/18 05:33:05;;;;;;;4.27;1.40;;;;;;;8.93;100.00;102077.06;5062268;28;20057;-70
2023/09/18 05:35:32;;;;;;;1.47;1.30;;;;;;;8.98;100.00;102076.75;5053659;28;20083;-68
2023/09/18 05:37:59;;;;;;;3.97;1.67;;;;;;;8.82;100.00;102047.84;5053897;28;20141;-69
2023/09/18 05:40:28;;;;;;;1.63;1.50;;;;;;;8.90;100.00;102053.41;5053388;28;20024;-71
2023/09/18 05:42:55;;;;;;;2.28;1.60;;;;;;;9.11;100.00;102088.09;5053207;28;20040;-68
2023/09/18 05:45:20;;;;;;;6.43;1.57;;;;;;;9.08;100.00;102074.19;5051928;28;20025;-69
2023/09/18 05:47:48;;;;;;;1.80;1.70;;;;;;;9.13;100.00;102085.31;5053356;28;20033;-70
2023/09/18 05:50:17;;;;;;;1.53;1.40;;;;;;;9.12;100.00;102071.16;5053068;28;20353;-68
2023/09/18 05:52:47;;;;;;;1.50;1.40;;;;;;;9.30;100.00;102095.47;5053271;28;20380;-69
2023/09/18 05:55:14;;;;;;;3.90;1.30;;;;;;;9.25;100.00;102076.34;5053231;28;20036;-68
2023/09/18 05:57:40;;;;;;;1.80;1.30;;;;;;;9.31;100.00;102090.03;5053014;28;20585;-69
2023/09/18 06:00:07;;;;;;;3.00;1.50;;;;;;;9.25;100.00;102068.38;5035051;28;20037;-68
2023/09/18 06:02:32;;;;;;;3.93;1.60;;;;;;;9.33;100.00;102073.94;5057672;28;20029;-69
2023/09/18 06:05:02;;;;;;;2.40;1.37;;;;;;;9.44;100.00;102095.19;5051872;28;20135;-68
2023/09/18 06:07:30;;;;;;;5.00;2.13;;;;;;;9.25;100.00;102047.09;5053099;28;20530;-69
2023/09/18 06:09:57;;;;;;;3.60;2.43;;;;;;;9.62;100.00;102099.03;5052742;28;20352;-68
2023/09/18 06:12:22;;;;;;;2.87;2.07;;;;;;;9.68;100.00;102096.84;5051015;28;20028;-67
2023/09/18 06:14:48;;;;;;;2.43;2.00;;;;;;;9.68;100.00;102091.53;5052586;28;20029;-68
2023/09/18 06:17:14;;;;;;;6.30;1.93;;;;;;;9.75;100.00;102098.03;5052501;28;20033;-70
2023/09/18 06:19:41;;;;;;;1.90;1.40;;;;;;;9.61;100.00;102078.72;5052711;28;20063;-69
2023/09/18 06:22:07;;;;;;;2.13;1.77;;;;;;;9.81;100.00;102102.84;5052526;28;20074;-69
2023/09/18 06:24:34;;;;;;;1.77;1.47;;;;;;;9.88;100.00;102098.75;5052511;28;20116;-69
2023/09/18 06:27:00;;;;;;;2.90;1.57;;;;;;;9.90;100.00;102102.13;5052562;28;20539;-71
2023/09/18 06:29:25;;;;;;;3.90;2.33;;;;;;;9.98;100.00;102115.63;5052551;28;20033;-70
2023/09/18 06:31:51;;;;;;;5.63;1.70;;;;;;;10.05;100.00;102124.81;5052501;28;20380;-71
2023/09/18 06:34:17;;;;;;;2.33;1.47;;;;;;;10.02;100.00;102103.75;5052565;28;20033;-71
2023/09/18 06:36:43;;;;;;;3.73;1.60;;;;;;;10.05;100.00;102115.97;5052608;28;20352;-70
2023/09/18 06:39:08;;;;;;;3.73;2.03;;;;;;;10.16;100.00;102119.47;5051249;28;20029;-74
2023/09/18 06:41:34;;;;;;;2.57;1.60;;;;;;;10.07;100.00;102106.88;5051020;28;20036;-73
2023/09/18 06:44:03;;;;;;;2.63;1.50;;;;;;;10.21;100.00;102127.94;5051101;28;20456;-71
2023/09/18 06:46:29;;;;;;;7.03;1.80;;;;;;;10.20;100.00;102118.25;5052459;28;20068;-70
2023/09/18 06:48:56;;;;;;;5.00;1.67;;;;;;;10.29;100.00;102129.13;5052948;28;20068;-69
2023/09/18 06:51:23;;;;;;;3.23;1.70;;;;;;;10.24;100.00;102111.72;5053577;28;20029;-69
2023/09/18 06:53:48;;;;;;;6.37;1.97;;;;;;;10.13;100.00;102089.59;5052479;28;20036;-70
2023/09/18 06:56:14;;;;;;;2.00;1.53;;;;;;;10.24;100.00;102100.22;5051207;28;20032;-69
2023/09/18 06:58:39;;;;;;;2.00;1.40;;;;;;;10.35;100.00;102113.47;5050702;28;20037;-70
2023/09/18 07:01:09;;;;;;;5.77;2.37;;;;;;;10.52;100.00;102130.72;5052160;28;20025;-68
2023/09/18 07:03:36;;;;;;;2.37;1.73;;;;;;;10.48;100.00;102121.28;5050570;28;20381;-68
2023/09/18 07:06:04;;;;;;;2.63;1.80;;;;;;;10.53;100.00;102109.25;5050706;28;20544;-69
2023/09/18 07:08:30;;;;;;;5.63;1.97;;;;;;;10.67;100.00;102128.56;5053937;28;20029;-69
2023/09/18 07:10:55;;;;;;;3.17;2.00;;;;;;;10.70;100.00;102126.50;5056197;28;20040;-68
2023/09/18 07:13:21;;;;;;;7.53;2.10;;;;;;;10.60;100.00;102101.59;5059989;28;20021;-66
2023/09/18 07:15:47;;;;;;;7.03;2.37;;;;;;;10.70;100.00;102117.66;5054895;28;20025;-70
2023/09/18 07:18:14;;;;;;;2.87;1.30;;;;;;;10.81;100.00;102133.56;5052741;28;20058;-71
2023/09/18 07:20:41;;;;;;;4.63;2.00;;;;;;;10.84;100.00;102125.31;5053985;28;20445;-67
2023/09/18 07:23:07;;;;;;;2.83;2.10;;;;;;;10.76;100.00;102101.16;5056392;28;20025;-69
2023/09/18 07:25:33;;;;;;;2.80;1.90;;;;;;;10.84;100.00;102110.16;5055382;28;20079;-70
2023/09/18 07:27:59;;;;;;;2.70;1.67;;;;;;;10.91;100.00;102114.97;5055990;28;20056;-69
2023/09/18 07:30:26;;;;;;;6.87;3.67;;;;;;;10.79;100.00;102098.22;5058424;28;20381;-71
2023/09/18 07:32:58;;;;;;;1.75;1.63;;;;;;;10.94;100.00;102126.19;5057037;28;20396;-70
2023/09/18 07:35:25;;;;;;;3.90;1.97;;;;;;;10.98;100.00;102116.13;5057016;28;20125;-71
2023/09/18 07:37:51;;;;;;;2.00;1.67;;;;;;;11.20;99.64;102152.44;5055473;28;20032;-71
2023/09/18 07:40:17;;;;;;;2.20;1.60;;;;;;;11.16;98.70;102139.38;5059779;28;20020;-74
2023/09/18 07:42:45;;;;;;;3.38;1.83;;;;;;;11.14;96.35;102143.16;5064325;28;20025;-73
2023/09/18 07:45:11;;;;;;;4.53;1.57;;;;;;;11.01;95.57;102132.72;5060385;28;20021;-72
2023/09/18 07:47:37;;;;;;;3.40;1.73;;;;;;;11.05;96.96;102147.47;5057776;28;20032;-71
2023/09/18 07:50:03;;;;;;;2.73;1.47;;;;;;;11.07;97.36;102136.66;5055724;28;20037;-72
2023/09/18 07:52:32;;;;;;;1.93;1.50;;;;;;;11.28;97.33;102145.50;5055842;28;20028;-70
2023/09/18 07:54:58;;;;;;;3.13;1.67;;;;;;;11.32;96.90;102154.06;5055872;28;20522;-72
2023/09/18 07:57:25;;;;;;;2.07;1.83;;;;;;;11.00;96.23;102088.38;5054757;28;20044;-75
2023/09/18 07:59:51;;;;;;;2.27;1.40;;;;;;;11.39;94.74;102129.38;5043201;28;20029;-76
2023/09/18 08:02:18;;;;;;;3.63;1.70;;;;;;;11.65;94.30;102132.41;5037441;28;20041;-74
2023/09/18 08:04:44;;;;;;;3.30;2.10;;;;;;;11.84;92.68;102126.28;5047220;28;20039;-71
2023/09/18 08:07:10;;;;;;;2.10;1.33;;;;;;;12.08;87.68;102153.47;5055981;28;20021;-70
2023/09/18 08:09:36;;;;;;;3.17;1.60;;;;;;;12.27;86.86;102138.44;5055690;28;20040;-67
2023/09/18 08:12:06;;;;;;;3.17;1.77;;;;;;;12.57;83.90;102145.47;5056499;28;20033;-69
2023/09/18 08:14:32;;;;;;;2.40;1.77;;;;;;;12.53;83.17;102126.22;5048068;28;20036;-69
2023/09/18 08:16:58;;;;;;;1.60;1.50;;;;;;;12.57;81.67;102114.25;5036730;28;20029;-70
2023/09/18 08:19:26;;;;;;;3.23;1.40;;;;;;;12.80;81.10;102138.00;5021708;28;20026;-70
2023/09/18 08:21:54;;;;;;;3.23;1.90;;;;;;;12.87;80.60;102125.72;5035377;28;20372;-70
2023/09/18 08:24:20;;;;;;;2.10;1.40;;;;;;;13.05;78.46;102134.69;5049657;28;20088;-72
2023/09/18 08:26:47;;;;;;;2.53;1.63;;;;;;;13.23;78.50;102142.81;5036122;28;20373;-72
2023/09/18 08:29:13;;;;;;;5.07;1.67;;;;;;;13.27;76.39;102134.34;5064806;28;20494;-70
2023/09/18 08:31:39;;;;;;;4.73;1.37;;;;;;;13.39;74.65;102134.19;5034390;28;20053;-70
2023/09/18 08:34:05;;;;;;;1.50;1.40;;;;;;;13.40;73.64;102127.84;5035357;28;20044;-72
2023/09/18 08:36:31;;;;;;;2.77;1.40;;;;;;;13.25;72.64;102101.56;5034109;28;20026;-70
2023/09/18 08:38:57;;;;;;;4.33;1.53;;;;;;;13.52;72.88;102140.88;5039217;28;20032;-71
2023/09/18 08:41:27;;;;;;;1.50;1.40;;;;;;;13.53;72.30;102123.81;5054795;28;20124;-70
2023/09/18 08:43:59;;;;;;;2.27;1.60;;;;;;;13.62;74.38;102132.81;5054573;28;20025;-70
2023/09/18 08:46:25;;;;;;;1.77;1.20;;;;;;;13.56;74.28;102120.00;5054765;28;20025;-71
2023/09/18 08:48:51;;;;;;;2.33;1.70;;;;;;;13.47;72.86;102108.34;5054374;28;20358;-73
2023/09/18 08:51:18;;;;;;;3.07;1.37;;;;;;;13.64;72.33;102130.81;5058023;28;20037;-74
2023/09/18 08:53:45;;;;;;;1.87;1.47;;;;;;;13.72;72.68;102148.81;5058936;28;20550;-71
2023/09/18 08:56:13;;;;;;;1.60;1.50;;;;;;;13.78;73.30;102148.22;5056108;28;20024;-71
2023/09/18 08:58:42;;;;;;;1.40;1.10;;;;;;;13.83;72.22;102153.94;5047721;28;20071;-71
2023/09/18 09:01:11;;;;;;;3.47;1.57;;;;;;;13.70;71.96;102122.19;5039408;28;20040;-72
2023/09/18 09:03:38;;;;;;;1.53;1.20;;;;;;;13.82;71.85;102155.78;5035731;28;20342;-71
2023/09/18 09:06:06;;;;;;;4.57;1.57;;;;;;;13.68;72.05;102134.88;5034636;28;20276;-67
2023/09/18 09:08:31;;;;;;;1.53;1.43;;;;;;;13.67;75.93;102146.59;5033893;28;20496;-73
2023/09/18 09:10:57;;;;;;;4.10;1.50;;;;;;;13.47;77.69;102113.72;5034106;28;20033;-71
2023/09/18 09:13:27;;;;;;;1.57;1.33;;;;;;;13.47;78.30;102120.91;5043007;28;20026;-69
2023/09/18 09:15:57;;;;;;;2.80;1.30;;;;;;;13.54;80.89;102146.91;5032756;28;20071;-71
2023/09/18 09:18:28;;;;;;;2.27;1.30;;;;;;;13.42;82.95;102149.94;5033737;28;20033;-70
2023/09/18 09:21:04;;;;;;;3.73;1.20;;;;;;;13.36;84.89;102146.03;5034480;28;20067;-70
2023/09/18 09:23:45;;;;;;;1.60;1.50;;;;;;;13.20;85.84;102156.50;5034494;28;20033;-69
2023/09/18 09:26:15;;;;;;;7.07;2.43;;;;;;;12.99;87.58;102141.44;5039430;28;20060;-68
2023/09/18 09:28:43;;;;;;;2.23;1.97;;;;;;;12.99;89.34;102149.47;5036589;28;20025;-70
2023/09/18 09:31:11;;;;;;;2.80;1.70;;;;;;;13.10;88.94;102169.88;5037561;28;20056;-70
2023/09/18 09:33:40;;;;;;;6.95;1.98;;;;;;;12.90;89.76;102133.47;5036872;28;20116;-70
2023/09/18 09:36:07;;;;;;;2.23;1.20;;;;;;;13.09;89.34;102162.84;5038298;28;20618;-72
2023/09/18 09:38:34;;;;;;;1.80;1.70;;;;;;;13.08;89.45;102174.53;5038630;28;20029;-68
2023/09/18 09:41:01;;;;;;;6.40;2.03;;;;;;;12.89;90.71;102151.34;5035422;28;20369;-69
2023/09/18 09:43:30;;;;;;;3.03;1.23;;;;;;;12.98;89.22;102157.63;5035794;28;20033;-72
2023/09/18 09:46:04;;;;;;;1.60;1.23;;;;;;;12.99;88.60;102167.34;5037280;28;20029;-72
2023/09/18 09:48:32;;;;;;;3.63;1.30;;;;;;;12.99;89.47;102164.66;5035652;28;20025;-70
2023/09/18 09:51:00;;;;;;;2.23;1.47;;;;;;;13.09;89.76;102160.16;5035301;28;20099;-69
2023/09/18 09:53:47;;;;;;;4.43;1.63;;;;;;;13.08;89.61;102134.41;5033223;28;20048;-70
2023/09/18 09:56:14;;;;;;;1.50;1.40;;;;;;;13.31;89.42;102167.88;5037211;28;20033;-71
2023/09/18 09:58:43;;;;;;;2.30;1.70;;;;;;;13.38;90.34;102168.13;5047177;28;20031;-70
2023/09/18 10:01:17;;;;;;;2.37;1.57;;;;;;;13.33;90.43;102155.19;5046228;28;20032;-70
2023/09/18 10:03:44;;;;;;;3.40;1.80;;;;;;;13.28;90.23;102141.38;5053133;28;20039;-71
2023/09/18 10:06:13;;;;;;;3.23;1.50;;;;;;;13.46;88.21;102156.69;5052875;28;20029;-72
2023/09/18 10:08:40;;;;;;;2.43;1.60;;;;;;;13.49;86.87;102154.53;5053062;28;20029;-69
2023/09/18 10:11:08;;;;;;;2.80;1.40;;;;;;;13.56;86.09;102161.00;5053026;28;20029;-72
2023/09/18 10:13:41;;;;;;;5.20;2.23;;;;;;;13.67;84.77;102159.97;5052763;28;20479;-69
2023/09/18 10:16:10;;;;;;;4.57;1.27;;;;;;;13.71;85.73;102153.31;5052783;28;20033;-69
2023/09/18 10:18:47;;;;;;;2.03;1.48;;;;;;;13.75;83.75;102141.31;5052583;28;20075;-71
2023/09/18 10:21:31;;;;;;;1.35;1.10;;;;;;;13.89;82.77;102151.53;5052780;28;20025;-71
2023/09/18 10:24:15;;;;;;;5.07;1.17;;;;;;;14.03;83.23;102165.41;5051616;28;20433;-72
2023/09/18 10:26:58;;;;;;;3.43;1.20;;;;;;;14.09;79.86;102167.47;5051989;28;20021;-69
2023/09/18 10:29:25;;;;;;;1.80;1.70;;;;;;;14.07;77.98;102153.38;5048093;28;20040;-72
2023/09/18 10:31:53;;;;;;;1.30;1.20;;;;;;;14.13;76.94;102163.47;5051408;28;20040;-70
2023/09/18 10:34:19;;;;;;;;;;;;;;;14.21;76.86;102177.00;5052378;28;20388;-69
2023/09/18 10:36:49;;;;;;;1.40;1.30;;;;;;;14.10;78.17;102169.16;5052157;28;19909;-70
2023/09/18 10:39:19;;;;;;;5.03;2.13;;;;;;;13.88;78.04;102141.81;5051297;28;20556;-70
2023/09/18 10:41:51;;;;;;;1.50;1.40;;;;;;;13.69;78.63;102122.34;5053266;28;20111;-72
2023/09/18 10:44:17;;;;;;;1.47;1.13;;;;;;;13.84;77.89;102156.47;5052502;28;20064;-70
2023/09/18 10:46:45;;;;;;;1.13;1.00;;;;;;;13.87;77.49;102169.56;5052316;28;20091;-72
2023/09/18 10:49:11;;;;;;;1.63;1.30;;;;;;;13.74;76.63;102146.81;5052523;28;20028;-72
2023/09/18 10:51:41;;;;;;;0.93;0.93;;;;;;;13.93;77.01;102168.97;5052341;28;20033;-76
2023/09/18 10:54:14;;;;;;;1.83;1.10;;;;;;;13.70;76.43;102129.38;5052674;28;20087;-75
2023/09/18 10:56:42;;;;;;;1.27;1.10;;;;;;;13.89;74.77;102159.56;5052511;28;20066;-73
2023/09/18 10:59:08;;;;;;;2.37;1.67;;;;;;;13.87;74.85;102148.13;5052447;28;20024;-72
2023/09/18 11:01:37;;;;;;;1.73;1.37;;;;;;;13.90;74.23;102161.25;5052191;28;20029;-77
2023/09/18 11:04:09;;;;;;;1.10;0.93;;;;;;;13.93;74.62;102163.63;5052218;28;20021;-74
2023/09/18 11:06:53;;;;;;;1.60;1.10;;;;;;;14.05;74.39;102176.78;5053182;28;20056;-71
2023/09/18 11:09:27;;;;;;;1.17;1.00;;;;;;;14.03;74.20;102173.44;5053903;28;20139;-74
2023/09/18 11:11:57;;;;;;;1.00;0.90;;;;;;;14.15;72.58;102178.41;5033431;28;20075;-71
2023/09/18 11:14:41;;;;;;;1.60;1.27;;;;;;;13.89;72.83;102116.72;5032475;28;20025;-75
2023/09/18 11:17:28;;;;;;;3.57;1.30;;;;;;;14.32;73.07;102179.44;5032399;28;20076;-73
2023/09/18 11:20:23;;;;;;;1.27;1.03;;;;;;;14.18;72.33;102156.69;5030814;28;20032;-70
2023/09/18 11:22:57;;;;;;;1.43;1.30;;;;;;;14.04;72.60;102165.25;5031607;28;20037;-71
2023/09/18 11:25:37;;;;;;;1.67;0.93;;;;;;;14.01;73.59;102178.09;5032137;28;20025;-70
2023/09/18 11:28:07;;;;;;;1.47;1.00;;;;;;;14.00;72.36;102179.94;5033270;28;20026;-72